sensor_id;sensor_type;location;lat;lon;timestamp;temperature;humidity
16313;DHT22;8265;52.622;13.296;2023-07-20T00:01:41;14.10;94.20
16313;DHT22;8265;52.622;13.296;2023-07-20T00:07:03;14.00;93.80
16313;DHT22;8265;52.622;13.296;2023-07-20T00:12:23;14.00;93.90
16313;DHT22;8265;52.622;13.296;2023-07-20T00:17:44;13.90;94.00
16313;DHT22;8265;52.622;13.296;2023-07-20T00:23:05;13.90;94.20
16313;DHT22;8265;52.622;13.296;2023-07-20T00:28:26;13.70;94.30
16313;DHT22;8265;52.622;13.296;2023-07-20T00:33:47;13.60;94.40
16313;DHT22;8265;52.622;13.296;2023-07-20T00:39:08;13.60;94.70
16313;DHT22;8265;52.622;13.296;2023-07-20T00:44:29;13.50;94.70
16313;DHT22;8265;52.622;13.296;2023-07-20T00:49:50;13.50;94.90
16313;DHT22;8265;52.622;13.296;2023-07-20T00:55:11;13.50;94.80
16313;DHT22;8265;52.622;13.296;2023-07-20T01:00:32;13.50;95.00
16313;DHT22;8265;52.622;13.296;2023-07-20T01:11:21;13.70;95.10
16313;DHT22;8265;52.622;13.296;2023-07-20T01:16:35;13.60;94.90
16313;DHT22;8265;52.622;13.296;2023-07-20T01:32:39;14.00;94.60
16313;DHT22;8265;52.622;13.296;2023-07-20T01:37:59;14.10;94.20
16313;DHT22;8265;52.622;13.296;2023-07-20T01:43:20;14.20;94.00
16313;DHT22;8265;52.622;13.296;2023-07-20T01:48:41;14.10;93.90
16313;DHT22;8265;52.622;13.296;2023-07-20T01:54:02;14.20;93.90
16313;DHT22;8265;52.622;13.296;2023-07-20T01:59:23;14.20;93.70
16313;DHT22;8265;52.622;13.296;2023-07-20T02:04:44;14.30;93.20
16313;DHT22;8265;52.622;13.296;2023-07-20T02:10:05;14.30;93.00
16313;DHT22;8265;52.622;13.296;2023-07-20T02:15:26;14.30;93.00
16313;DHT22;8265;52.622;13.296;2023-07-20T02:20:47;14.20;93.20
16313;DHT22;8265;52.622;13.296;2023-07-20T02:26:08;14.30;93.00
16313;DHT22;8265;52.622;13.296;2023-07-20T02:31:29;14.20;92.70
16313;DHT22;8265;52.622;13.296;2023-07-20T02:36:50;14.10;93.00
16313;DHT22;8265;52.622;13.296;2023-07-20T02:42:11;14.20;93.20
16313;DHT22;8265;52.622;13.296;2023-07-20T02:47:32;14.10;93.20
16313;DHT22;8265;52.622;13.296;2023-07-20T02:52:53;14.30;93.10
16313;DHT22;8265;52.622;13.296;2023-07-20T02:58:14;14.20;92.90
16313;DHT22;8265;52.622;13.296;2023-07-20T03:03:36;14.10;93.50
16313;DHT22;8265;52.622;13.296;2023-07-20T03:08:56;14.10;93.80
16313;DHT22;8265;52.622;13.296;2023-07-20T03:14:17;14.20;93.70
16313;DHT22;8265;52.622;13.296;2023-07-20T03:19:38;14.10;93.70
16313;DHT22;8265;52.622;13.296;2023-07-20T03:24:59;14.20;93.60
16313;DHT22;8265;52.622;13.296;2023-07-20T03:30:20;14.20;92.70
16313;DHT22;8265;52.622;13.296;2023-07-20T03:35:42;14.20;92.50
16313;DHT22;8265;52.622;13.296;2023-07-20T03:41:02;14.30;92.40
16313;DHT22;8265;52.622;13.296;2023-07-20T03:46:23;14.30;92.50
16313;DHT22;8265;52.622;13.296;2023-07-20T03:51:44;14.30;93.10
16313;DHT22;8265;52.622;13.296;2023-07-20T03:57:05;14.40;92.00
16313;DHT22;8265;52.622;13.296;2023-07-20T04:02:26;14.40;92.50
16313;DHT22;8265;52.622;13.296;2023-07-20T04:07:47;14.40;92.60
16313;DHT22;8265;52.622;13.296;2023-07-20T04:13:08;14.30;92.50
16313;DHT22;8265;52.622;13.296;2023-07-20T04:18:29;14.40;92.30
16313;DHT22;8265;52.622;13.296;2023-07-20T04:23:50;14.40;92.30
16313;DHT22;8265;52.622;13.296;2023-07-20T04:29:11;14.40;91.50
16313;DHT22;8265;52.622;13.296;2023-07-20T04:34:32;14.50;91.70
16313;DHT22;8265;52.622;13.296;2023-07-20T04:39:53;14.60;91.40
16313;DHT22;8265;52.622;13.296;2023-07-20T04:45:14;14.60;91.00
16313;DHT22;8265;52.622;13.296;2023-07-20T04:50:35;14.60;91.40
16313;DHT22;8265;52.622;13.296;2023-07-20T04:55:56;14.80;90.70
16313;DHT22;8265;52.622;13.296;2023-07-20T05:01:17;14.90;90.10
16313;DHT22;8265;52.622;13.296;2023-07-20T05:06:38;14.90;89.60
16313;DHT22;8265;52.622;13.296;2023-07-20T05:11:59;14.90;89.70
16313;DHT22;8265;52.622;13.296;2023-07-20T05:17:20;15.00;90.00
16313;DHT22;8265;52.622;13.296;2023-07-20T05:22:41;15.10;89.90
16313;DHT22;8265;52.622;13.296;2023-07-20T05:28:02;15.30;87.90
16313;DHT22;8265;52.622;13.296;2023-07-20T05:33:23;15.30;87.80
16313;DHT22;8265;52.622;13.296;2023-07-20T05:38:44;15.30;87.50
16313;DHT22;8265;52.622;13.296;2023-07-20T05:44:05;15.00;87.50
16313;DHT22;8265;52.622;13.296;2023-07-20T05:49:26;15.00;88.00
16313;DHT22;8265;52.622;13.296;2023-07-20T05:54:47;15.30;86.50
16313;DHT22;8265;52.622;13.296;2023-07-20T06:00:08;15.30;85.50
16313;DHT22;8265;52.622;13.296;2023-07-20T06:05:29;15.50;85.90
16313;DHT22;8265;52.622;13.296;2023-07-20T06:10:50;16.00;83.30
16313;DHT22;8265;52.622;13.296;2023-07-20T06:16:11;16.20;80.50
16313;DHT22;8265;52.622;13.296;2023-07-20T06:21:32;15.90;80.60
16313;DHT22;8265;52.622;13.296;2023-07-20T06:26:53;15.80;82.40
16313;DHT22;8265;52.622;13.296;2023-07-20T06:32:14;16.00;82.00
16313;DHT22;8265;52.622;13.296;2023-07-20T06:37:35;16.10;77.70
16313;DHT22;8265;52.622;13.296;2023-07-20T06:42:56;16.00;77.00
16313;DHT22;8265;52.622;13.296;2023-07-20T06:48:17;16.60;75.00
16313;DHT22;8265;52.622;13.296;2023-07-20T06:53:38;17.00;74.40
16313;DHT22;8265;52.622;13.296;2023-07-20T06:58:59;16.90;73.40
16313;DHT22;8265;52.622;13.296;2023-07-20T07:04:20;16.60;74.30
16313;DHT22;8265;52.622;13.296;2023-07-20T07:09:41;16.30;77.20
16313;DHT22;8265;52.622;13.296;2023-07-20T07:15:02;16.50;76.30
16313;DHT22;8265;52.622;13.296;2023-07-20T07:20:23;16.90;74.60
16313;DHT22;8265;52.622;13.296;2023-07-20T07:25:44;17.50;71.50
16313;DHT22;8265;52.622;13.296;2023-07-20T07:31:05;17.60;70.30
16313;DHT22;8265;52.622;13.296;2023-07-20T07:36:25;17.50;70.00
16313;DHT22;8265;52.622;13.296;2023-07-20T07:41:47;17.50;70.00
16313;DHT22;8265;52.622;13.296;2023-07-20T07:47:07;17.50;68.00
16313;DHT22;8265;52.622;13.296;2023-07-20T07:52:28;18.10;66.30
16313;DHT22;8265;52.622;13.296;2023-07-20T07:57:49;18.20;66.40
16313;DHT22;8265;52.622;13.296;2023-07-20T08:03:10;18.20;66.20
16313;DHT22;8265;52.622;13.296;2023-07-20T08:08:32;18.10;66.80
16313;DHT22;8265;52.622;13.296;2023-07-20T08:13:55;18.10;65.20
16313;DHT22;8265;52.622;13.296;2023-07-20T08:19:13;18.50;64.10
16313;DHT22;8265;52.622;13.296;2023-07-20T08:24:34;18.90;62.20
16313;DHT22;8265;52.622;13.296;2023-07-20T08:29:55;19.40;61.20
16313;DHT22;8265;52.622;13.296;2023-07-20T08:35:16;19.10;60.00
16313;DHT22;8265;52.622;13.296;2023-07-20T08:40:44;18.50;62.60
16313;DHT22;8265;52.622;13.296;2023-07-20T08:45:58;18.50;64.00
16313;DHT22;8265;52.622;13.296;2023-07-20T08:51:19;18.80;63.20
16313;DHT22;8265;52.622;13.296;2023-07-20T08:56:40;19.30;60.60
16313;DHT22;8265;52.622;13.296;2023-07-20T09:02:01;19.50;60.50
16313;DHT22;8265;52.622;13.296;2023-07-20T09:07:22;19.40;61.10
16313;DHT22;8265;52.622;13.296;2023-07-20T09:12:43;19.70;59.70
16313;DHT22;8265;52.622;13.296;2023-07-20T09:18:04;19.50;60.10
16313;DHT22;8265;52.622;13.296;2023-07-20T09:23:35;18.80;61.20
16313;DHT22;8265;52.622;13.296;2023-07-20T09:28:50;18.30;64.30
16313;DHT22;8265;52.622;13.296;2023-07-20T09:34:07;18.40;65.30
16313;DHT22;8265;52.622;13.296;2023-07-20T09:39:28;19.00;63.00
16313;DHT22;8265;52.622;13.296;2023-07-20T09:44:49;19.20;61.80
16313;DHT22;8265;52.622;13.296;2023-07-20T09:50:10;19.40;63.00
16313;DHT22;8265;52.622;13.296;2023-07-20T09:55:31;19.50;62.30
16313;DHT22;8265;52.622;13.296;2023-07-20T10:00:52;19.30;62.60
16313;DHT22;8265;52.622;13.296;2023-07-20T10:06:15;19.40;61.10
16313;DHT22;8265;52.622;13.296;2023-07-20T10:11:35;19.40;62.00
16313;DHT22;8265;52.622;13.296;2023-07-20T10:16:57;19.50;60.40
16313;DHT22;8265;52.622;13.296;2023-07-20T10:22:26;19.70;60.60
16313;DHT22;8265;52.622;13.296;2023-07-20T10:27:37;19.70;59.90
16313;DHT22;8265;52.622;13.296;2023-07-20T10:32:58;20.00;58.60
16313;DHT22;8265;52.622;13.296;2023-07-20T10:38:19;20.20;57.90
16313;DHT22;8265;52.622;13.296;2023-07-20T10:43:42;20.20;58.00
16313;DHT22;8265;52.622;13.296;2023-07-20T10:49:02;20.00;59.00
16313;DHT22;8265;52.622;13.296;2023-07-20T10:59:43;20.60;57.50
16313;DHT22;8265;52.622;13.296;2023-07-20T11:05:04;20.90;57.40
16313;DHT22;8265;52.622;13.296;2023-07-20T11:10:25;20.30;57.80
16313;DHT22;8265;52.622;13.296;2023-07-20T11:21:08;19.50;60.30
16313;DHT22;8265;52.622;13.296;2023-07-20T11:26:28;20.00;59.10
16313;DHT22;8265;52.622;13.296;2023-07-20T11:31:49;20.30;58.10
16313;DHT22;8265;52.622;13.296;2023-07-20T11:37:10;20.00;59.90
16313;DHT22;8265;52.622;13.296;2023-07-20T11:42:32;19.50;58.80
16313;DHT22;8265;52.622;13.296;2023-07-20T11:47:52;19.20;60.70
16313;DHT22;8265;52.622;13.296;2023-07-20T11:53:13;19.20;59.60
16313;DHT22;8265;52.622;13.296;2023-07-20T11:58:34;19.00;62.20
16313;DHT22;8265;52.622;13.296;2023-07-20T12:04:02;18.80;63.00
16313;DHT22;8265;52.622;13.296;2023-07-20T12:09:16;19.20;63.40
16313;DHT22;8265;52.622;13.296;2023-07-20T12:14:37;19.70;62.50
16313;DHT22;8265;52.622;13.296;2023-07-20T12:19:58;19.70;61.50
16313;DHT22;8265;52.622;13.296;2023-07-20T12:25:19;19.50;61.10
16313;DHT22;8265;52.622;13.296;2023-07-20T12:30:40;19.20;63.40
16313;DHT22;8265;52.622;13.296;2023-07-20T12:36:01;19.50;60.80
16313;DHT22;8265;52.622;13.296;2023-07-20T12:41:22;20.40;58.70
16313;DHT22;8265;52.622;13.296;2023-07-20T12:46:43;21.00;56.60
16313;DHT22;8265;52.622;13.296;2023-07-20T12:52:04;21.40;50.70
16313;DHT22;8265;52.622;13.296;2023-07-20T12:57:25;21.70;49.30
16313;DHT22;8265;52.622;13.296;2023-07-20T13:02:46;21.80;49.50
16313;DHT22;8265;52.622;13.296;2023-07-20T13:08:07;22.50;50.30
16313;DHT22;8265;52.622;13.296;2023-07-20T13:13:28;22.30;47.50
16313;DHT22;8265;52.622;13.296;2023-07-20T13:18:49;22.80;47.20
16313;DHT22;8265;52.622;13.296;2023-07-20T13:24:10;22.90;45.10
16313;DHT22;8265;52.622;13.296;2023-07-20T13:29:31;23.30;46.10
16313;DHT22;8265;52.622;13.296;2023-07-20T13:34:52;22.70;44.40
16313;DHT22;8265;52.622;13.296;2023-07-20T13:40:14;21.80;47.20
16313;DHT22;8265;52.622;13.296;2023-07-20T13:45:34;22.60;45.50
16313;DHT22;8265;52.622;13.296;2023-07-20T13:50:55;23.50;43.60
16313;DHT22;8265;52.622;13.296;2023-07-20T13:56:16;24.30;41.80
16313;DHT22;8265;52.622;13.296;2023-07-20T14:01:37;23.70;43.70
16313;DHT22;8265;52.622;13.296;2023-07-20T14:06:58;23.90;42.70
16313;DHT22;8265;52.622;13.296;2023-07-20T14:12:19;24.50;41.20
16313;DHT22;8265;52.622;13.296;2023-07-20T14:17:40;23.10;42.40
16313;DHT22;8265;52.622;13.296;2023-07-20T14:23:01;22.20;43.90
16313;DHT22;8265;52.622;13.296;2023-07-20T14:28:22;23.20;42.90
16313;DHT22;8265;52.622;13.296;2023-07-20T14:33:43;24.80;41.20
16313;DHT22;8265;52.622;13.296;2023-07-20T14:39:04;23.80;40.90
16313;DHT22;8265;52.622;13.296;2023-07-20T14:44:25;23.30;42.90
16313;DHT22;8265;52.622;13.296;2023-07-20T14:49:46;25.20;40.50
16313;DHT22;8265;52.622;13.296;2023-07-20T14:55:07;25.30;39.20
16313;DHT22;8265;52.622;13.296;2023-07-20T15:00:28;25.50;38.90
16313;DHT22;8265;52.622;13.296;2023-07-20T15:05:49;25.40;39.20
16313;DHT22;8265;52.622;13.296;2023-07-20T15:11:10;25.50;39.00
16313;DHT22;8265;52.622;13.296;2023-07-20T15:16:31;26.00;37.60
16313;DHT22;8265;52.622;13.296;2023-07-20T15:21:52;23.70;40.10
16313;DHT22;8265;52.622;13.296;2023-07-20T15:27:13;22.70;41.70
16313;DHT22;8265;52.622;13.296;2023-07-20T15:32:34;22.70;42.00
16313;DHT22;8265;52.622;13.296;2023-07-20T15:37:55;23.20;42.10
16313;DHT22;8265;52.622;13.296;2023-07-20T15:43:16;24.00;41.10
16313;DHT22;8265;52.622;13.296;2023-07-20T15:48:37;24.10;42.10
16313;DHT22;8265;52.622;13.296;2023-07-20T15:53:58;24.70;42.50
16313;DHT22;8265;52.622;13.296;2023-07-20T15:59:19;25.20;40.40
16313;DHT22;8265;52.622;13.296;2023-07-20T16:04:40;25.00;40.40
16313;DHT22;8265;52.622;13.296;2023-07-20T16:10:00;25.30;39.80
16313;DHT22;8265;52.622;13.296;2023-07-20T16:15:21;24.20;40.90
16313;DHT22;8265;52.622;13.296;2023-07-20T16:20:42;23.30;41.90
16313;DHT22;8265;52.622;13.296;2023-07-20T16:26:03;22.40;45.40
16313;DHT22;8265;52.622;13.296;2023-07-20T16:31:24;22.10;45.50
16313;DHT22;8265;52.622;13.296;2023-07-20T16:36:45;23.10;45.70
16313;DHT22;8265;52.622;13.296;2023-07-20T16:42:06;24.30;44.90
16313;DHT22;8265;52.622;13.296;2023-07-20T16:47:27;24.80;41.80
16313;DHT22;8265;52.622;13.296;2023-07-20T16:52:48;25.80;41.20
16313;DHT22;8265;52.622;13.296;2023-07-20T16:58:09;26.40;39.60
16313;DHT22;8265;52.622;13.296;2023-07-20T17:03:30;24.30;42.00
16313;DHT22;8265;52.622;13.296;2023-07-20T17:08:51;24.90;40.60
16313;DHT22;8265;52.622;13.296;2023-07-20T17:14:12;23.10;43.40
16313;DHT22;8265;52.622;13.296;2023-07-20T17:19:33;23.10;42.80
16313;DHT22;8265;52.622;13.296;2023-07-20T17:24:54;24.00;42.10
16313;DHT22;8265;52.622;13.296;2023-07-20T17:30:15;24.40;40.90
16313;DHT22;8265;52.622;13.296;2023-07-20T17:35:36;24.60;40.40
16313;DHT22;8265;52.622;13.296;2023-07-20T17:40:57;24.40;40.50
16313;DHT22;8265;52.622;13.296;2023-07-20T17:46:18;24.00;40.80
16313;DHT22;8265;52.622;13.296;2023-07-20T17:51:39;23.30;42.00
16313;DHT22;8265;52.622;13.296;2023-07-20T17:57:00;23.00;43.10
16313;DHT22;8265;52.622;13.296;2023-07-20T18:02:21;22.50;43.70
16313;DHT22;8265;52.622;13.296;2023-07-20T18:07:42;21.60;45.50
16313;DHT22;8265;52.622;13.296;2023-07-20T18:13:03;20.90;46.60
16313;DHT22;8265;52.622;13.296;2023-07-20T18:18:24;19.90;49.20
16313;DHT22;8265;52.622;13.296;2023-07-20T18:23:45;19.10;50.90
16313;DHT22;8265;52.622;13.296;2023-07-20T18:29:06;18.80;51.80
16313;DHT22;8265;52.622;13.296;2023-07-20T18:34:27;18.40;53.60
16313;DHT22;8265;52.622;13.296;2023-07-20T18:39:48;18.10;54.20
16313;DHT22;8265;52.622;13.296;2023-07-20T18:45:10;18.00;54.20
16313;DHT22;8265;52.622;13.296;2023-07-20T18:50:30;17.50;58.70
16313;DHT22;8265;52.622;13.296;2023-07-20T18:55:51;17.20;59.80
16313;DHT22;8265;52.622;13.296;2023-07-20T19:01:12;16.90;60.60
16313;DHT22;8265;52.622;13.296;2023-07-20T19:06:33;16.60;62.20
16313;DHT22;8265;52.622;13.296;2023-07-20T19:11:54;16.40;62.50
16313;DHT22;8265;52.622;13.296;2023-07-20T19:17:15;16.20;62.70
16313;DHT22;8265;52.622;13.296;2023-07-20T19:22:36;16.00;64.00
16313;DHT22;8265;52.622;13.296;2023-07-20T19:27:57;15.60;65.20
16313;DHT22;8265;52.622;13.296;2023-07-20T19:33:18;15.40;66.00
16313;DHT22;8265;52.622;13.296;2023-07-20T19:38:39;15.10;68.10
16313;DHT22;8265;52.622;13.296;2023-07-20T19:44:00;14.90;68.70
16313;DHT22;8265;52.622;13.296;2023-07-20T19:49:21;14.70;68.60
16313;DHT22;8265;52.622;13.296;2023-07-20T19:54:42;14.50;69.40
16313;DHT22;8265;52.622;13.296;2023-07-20T20:00:03;14.20;70.70
16313;DHT22;8265;52.622;13.296;2023-07-20T20:05:24;14.00;71.10
16313;DHT22;8265;52.622;13.296;2023-07-20T20:10:45;13.90;71.50
16313;DHT22;8265;52.622;13.296;2023-07-20T20:16:07;13.80;72.40
16313;DHT22;8265;52.622;13.296;2023-07-20T20:21:27;13.60;73.40
16313;DHT22;8265;52.622;13.296;2023-07-20T20:26:48;13.40;74.50
16313;DHT22;8265;52.622;13.296;2023-07-20T20:32:29;13.30;75.10
16313;DHT22;8265;52.622;13.296;2023-07-20T20:37:50;13.10;75.40
16313;DHT22;8265;52.622;13.296;2023-07-20T20:43:11;13.10;75.70
16313;DHT22;8265;52.622;13.296;2023-07-20T20:48:32;13.00;75.00
16313;DHT22;8265;52.622;13.296;2023-07-20T20:53:53;12.90;75.60
16313;DHT22;8265;52.622;13.296;2023-07-20T20:59:14;12.90;76.00
16313;DHT22;8265;52.622;13.296;2023-07-20T21:04:35;13.00;76.10
16313;DHT22;8265;52.622;13.296;2023-07-20T21:09:56;13.10;76.10
16313;DHT22;8265;52.622;13.296;2023-07-20T21:15:17;13.10;76.50
16313;DHT22;8265;52.622;13.296;2023-07-20T21:20:38;13.00;76.60
16313;DHT22;8265;52.622;13.296;2023-07-20T21:25:59;12.90;76.60
16313;DHT22;8265;52.622;13.296;2023-07-20T21:31:20;12.90;76.90
16313;DHT22;8265;52.622;13.296;2023-07-20T21:36:41;12.70;77.30
16313;DHT22;8265;52.622;13.296;2023-07-20T21:42:02;12.60;78.00
16313;DHT22;8265;52.622;13.296;2023-07-20T21:47:23;12.50;78.10
16313;DHT22;8265;52.622;13.296;2023-07-20T21:52:44;12.50;78.80
16313;DHT22;8265;52.622;13.296;2023-07-20T21:58:05;12.50;79.20
16313;DHT22;8265;52.622;13.296;2023-07-20T22:03:26;12.40;79.60
16313;DHT22;8265;52.622;13.296;2023-07-20T22:08:47;12.30;80.00
16313;DHT22;8265;52.622;13.296;2023-07-20T22:14:08;12.20;80.40
16313;DHT22;8265;52.622;13.296;2023-07-20T22:19:29;12.20;80.60
16313;DHT22;8265;52.622;13.296;2023-07-20T22:24:50;12.10;81.20
16313;DHT22;8265;52.622;13.296;2023-07-20T22:30:11;12.00;81.60
16313;DHT22;8265;52.622;13.296;2023-07-20T22:35:32;11.90;82.00
16313;DHT22;8265;52.622;13.296;2023-07-20T22:40:53;11.80;82.40
16313;DHT22;8265;52.622;13.296;2023-07-20T22:46:14;11.70;82.80
16313;DHT22;8265;52.622;13.296;2023-07-20T22:51:35;11.70;83.20
16313;DHT22;8265;52.622;13.296;2023-07-20T22:56:56;11.50;83.30
16313;DHT22;8265;52.622;13.296;2023-07-20T23:02:17;11.50;83.90
16313;DHT22;8265;52.622;13.296;2023-07-20T23:07:38;11.40;84.50
16313;DHT22;8265;52.622;13.296;2023-07-20T23:12:59;11.30;84.60
16313;DHT22;8265;52.622;13.296;2023-07-20T23:18:20;11.30;84.50
16313;DHT22;8265;52.622;13.296;2023-07-20T23:23:41;11.10;85.20
16313;DHT22;8265;52.622;13.296;2023-07-20T23:29:02;11.10;85.40
16313;DHT22;8265;52.622;13.296;2023-07-20T23:34:23;11.00;85.60
16313;DHT22;8265;52.622;13.296;2023-07-20T23:39:44;11.00;85.90
16313;DHT22;8265;52.622;13.296;2023-07-20T23:45:05;11.00;86.00
16313;DHT22;8265;52.622;13.296;2023-07-20T23:50:26;10.90;85.60
16313;DHT22;8265;52.622;13.296;2023-07-20T23:55:47;10.90;85.60
